ADDS METAR Data INFO
IDs: Format: Raw Decoded Include TAF

Data at: 2137 UTC 18 Jan 2018

KEKN 182051Z AUTO 21005KT 10SM CLR M01/M15 A3014 RMK AO2 SLP242 T10061150 56026 TSNO
KEKN 181951Z AUTO 22005KT 10SM CLR M02/M14 A3015 RMK AO2 SLP246 T10171139 TSNO
KEKN 181851Z AUTO 22009KT 10SM CLR M03/M14 A3018 RMK AO2 SLP259 T10281139 TSNO
KEKN 181751Z AUTO VRB06KT 10SM CLR M03/M15 A3022 RMK AO2 SLP273 T10331150 11033 21133 58028 TSNO
KEKN 181651Z AUTO 21003KT 10SM CLR M06/M14 A3026 RMK AO2 SLP288 T10561144 TSNO
KEKN 181551Z AUTO VRB05KT 10SM CLR M08/M15 A3028 RMK AO2 SLP297 T10781150 TSNO
KEKN 181451Z AUTO 16008KT 10SM CLR M10/M16 A3031 RMK AO2 SLP309 T11001156 53005 TSNO
KEKN 181351Z AUTO 17005KT 10SM CLR M13/M17 A3030 RMK AO2 SLP306 T11281167 TSNO
KEKN 181315Z AUTO 17005KT 10SM SCT016 M13/M17 A3029 RMK AO2 T11331167 TSNO
KEKN 181251Z AUTO VRB03KT 5SM HZ OVC016 M13/M17 A3029 RMK AO2 SLP304 T11331167 TSNO
KEKN 181151Z AUTO 15005KT 6SM HZ OVC017 M13/M16 A3029 RMK AO2 SNE11 SLP305 P0000 60000 T11281161 11122 21133 53004 TSNO
KEKN 181051Z AUTO 25004KT 5SM -SN OVC016 M12/M16 A3028 RMK AO2 SNB0956 SLP301 P0000 T11221156 TSNO
KEKN 180951Z AUTO 19003KT 5SM HZ OVC016 M13/M16 A3027 RMK AO2 SLP299 T11281156 TSNO
KEKN 180851Z AUTO 15004KT 6SM HZ OVC015 M13/M16 A3028 RMK AO2 SLP300 60000 T11281156 58009 TSNO
KEKN 180831Z AUTO 15006KT 6SM HZ OVC015 M13/M16 A3028 RMK AO2 T11281156 TSNO
KEKN 180751Z AUTO 15005KT 7SM OVC014 M13/M16 A3029 RMK AO2 SLP303 T11281161 TSNO
KEKN 180651Z AUTO 21004KT 5SM HZ OVC013 M13/M16 A3030 RMK AO2 SNB34E48 SLP306 P0000 T11281161 TSNO
KEKN 180551Z AUTO 24004KT 7SM OVC013 M13/M16 A3031 RMK AO2 SLP309 60000 T11331161 11128 21133 58008 TSNO
KEKN 180526Z AUTO 19004KT 8SM OVC014 M13/M17 A3031 RMK AO2 T11331167 TSNO
KEKN 180451Z AUTO 24003KT 9SM OVC015 M13/M17 A3032 RMK AO2 SNE01 SLP314 P0000 T11331167 410941139 TSNO
KEKN 180351Z AUTO 00000KT 5SM -SN OVC016 M13/M17 A3033 RMK AO2 SLP317 P0000 T11331167 TSNO
KEKN 180251Z AUTO 32006KT 6SM -SN OVC016 M13/M17 A3033 RMK AO2 SNB51 SLP319 P0000 60000 T11331167 58002 TSNO
KEKN 180151Z AUTO 26003KT 6SM HZ OVC016 M13/M17 A3033 RMK AO2 SNE41 SLP321 P0000 T11331167 TSNO
KEKN 180051Z AUTO 27006KT 5SM -SN OVC017 M13/M17 A3034 RMK AO2 SNB31 SLP324 P0000 T11281167 TSNO
KEKN 172351Z AUTO 31004KT 8SM OVC019 M13/M17 A3034 RMK AO2 SNB2253E19 SLP322 P0000 60000 T11281167 11094 21128 53003 TSNO
KEKN 172251Z AUTO VRB04KT 8SM OVC019 M13/M17 A3033 RMK AO2 SNE25 SLP319 P0000 T11281167 TSNO
KEKN 172151Z AUTO 32008KT 4SM -SN OVC017 M13/M17 A3033 RMK AO2 SNB06 SLP317 P0000 T11281167 TSNO